Cut Bank, MT

2:47 PM MDT on July 28, 2014 (GMT -0600)
Great Falls International (KGTF) Elev 3658 ft | 47.47 °N, 111.38 °W | Change Station

Current weather conditions updated 54 minutes ago

Clear
Clear
88 °F
Feels Like 88 °F
N
6
Wind Variable Wind from ENE

Today is forecast to be nearly the same temperature as yesterday.

Today
High -- | Low -- °F
--% Chance of Precip.
Yesterday
High -- | Low -- °F
Precip. -- in
5:58 AM 9:12 PM
Waxing Crescent, 3% visible
Pressure 30.10 in
Visibility 10.0 miles
Clouds Clear
Dew Point 40 °F
Humidity 18%
Rainfall 0.00 in
Snow Depth Not available.
UV 11 out of 12
Pollen 2.10 out of 12
Air Quality Not available.
Flu Activity Not available.
METAR KGTF 281953Z 07005KT 10SM CLR 31/04 A3020 RMK AO2 SLP192 T03110044

More Conditions Fewer Conditions

Pressure 30.10 in
Visibility 10.0 miles
Clouds Clear
Dew Point 40 °F
Humidity 18%
Rainfall 0.00 in
Snow Depth Not available.
UV 11 out of 12
Pollen 2.10 out of 12
Air Quality Not available.
Flu Activity Not available.
METAR KGTF 281953Z 07005KT 10SM CLR 31/04 A3020 RMK AO2 SLP192 T03110044

More Conditions Fewer Conditions

10-Day Weather Forecast

Almanac

Astronomy

Jul. 28, 2014 Rise Set
Actual Time 5:58 AM MDT 9:12 PM MDT
Civil Twilight 5:20 AM MDT 9:50 PM MDT
Nautical Twilight 4:30 AM MDT 10:39 PM MDT
Astronomical Twilight 3:27 AM MDT 11:42 PM MDT
Moon 7:56 AM MDT 9:40 PM MDT
Length of Visible Light 16h 29m
Length of Day
15h 14m
Tomorrow will be 2m 39s shorter.
Waxing Crescent, 3% of the Moon is Illuminated
Today
Waxing Crescent
Aug 3
First Quarter
Aug 10
Full
Aug 17
Last Quarter
Aug 25
New

Today's Extremes

State Highs State Lows

Community

WunderPhotos

Upload Photos

1,738,488 photos uploaded!

Nearby

Snow Depth

Station Depth Elevation
Dupuyer Creek 0 in 5750 ft
Waldron 0 in 5600 ft
Emery Creek 0 in 4350 ft
Wood Creek 1 in 5960 ft
Combination 1 in 5600 ft

Earthquake Activity

City Distance Mag. Time & Date
No recent earthquake activity has been reported nearby.
Minimum magnitude displayed is 2.5.

Coastal Water Temperatures

Place Temperature
No Stations Reporting

Nearby Weather Stations

Station Location Temp. Heat Index Dew Point Humidity Wind Precip. Elev Updated Type
Provident, Cut Bank, MT 85.3 °F 82 °F 42 °F 22% SSW  at  3.0 mph 0.00 in / hr 3799 ft 2:32 PM MDT Normal
Dean, Valier, MT 85.8 °F 83 °F 50 °F 29% SSE  at  7.0 mph 0.00 in / hr 3655 ft 2:45 PM MDT Normal
Boguss, Kevin, MT 92.1 °F 88 °F 25 °F 9% East  at  0.0 mph 0.00 in / hr 3340 ft 2:47 PM MDT Rapid Fire
Shelby, MT 87.4 °F 84 °F 39 °F 18% North  at  7.0 mph 0.00 in / hr 3328 ft 2:47 PM MDT Rapid Fire
HADS MARIAS RIVER NEAR SHELBY 6S MT, Shelby, MT 85 °F 82 °F - - North  at  - 0.00 in / hr 3087 ft 1:30 PM MDT MADIS

Show More Stations Show Fewer Stations